地図

経路データ

SID SEASON NUMBER BASIN SUBBASIN NAME ISO_TIME NATURE LAT LON WMO_WIND WMO_PRES WMO_AGENCY TRACK_TYPE DIST2LAND LANDFALL IFLAG USA_AGENCY USA_ATCF_ID USA_LAT USA_LON USA_RECORD USA_STATUS USA_WIND USA_PRES USA_SSHS USA_R34_NE USA_R34_SE USA_R34_SW USA_R34_NW USA_R50_NE USA_R50_SE USA_R50_SW USA_R50_NW USA_R64_NE USA_R64_SE USA_R64_SW USA_R64_NW USA_POCI USA_ROCI USA_RMW USA_EYE TOKYO_LAT TOKYO_LON TOKYO_GRADE TOKYO_WIND TOKYO_PRES TOKYO_R50_DIR TOKYO_R50_LONG TOKYO_R50_SHORT TOKYO_R30_DIR TOKYO_R30_LONG TOKYO_R30_SHORT TOKYO_LAND CMA_LAT CMA_LON CMA_CAT CMA_WIND CMA_PRES HKO_LAT HKO_LON HKO_CAT HKO_WIND HKO_PRES NEWDELHI_LAT NEWDELHI_LON NEWDELHI_GRADE NEWDELHI_WIND NEWDELHI_PRES NEWDELHI_CI NEWDELHI_DP NEWDELHI_POCI REUNION_LAT REUNION_LON REUNION_TYPE REUNION_WIND REUNION_PRES REUNION_TNUM REUNION_CI REUNION_RMW REUNION_R34_NE REUNION_R34_SE REUNION_R34_SW REUNION_R34_NW REUNION_R50_NE REUNION_R50_SE REUNION_R50_SW REUNION_R50_NW REUNION_R64_NE REUNION_R64_SE REUNION_R64_SW REUNION_R64_NW BOM_LAT BOM_LON BOM_TYPE BOM_WIND BOM_PRES BOM_TNUM BOM_CI BOM_RMW BOM_R34_NE BOM_R34_SE BOM_R34_SW BOM_R34_NW BOM_R50_NE BOM_R50_SE BOM_R50_SW BOM_R50_NW BOM_R64_NE BOM_R64_SE BOM_R64_SW BOM_R64_NW BOM_ROCI BOM_POCI BOM_EYE BOM_POS_METHOD BOM_PRES_METHOD NADI_LAT NADI_LON NADI_CAT NADI_WIND NADI_PRES WELLINGTON_LAT WELLINGTON_LON WELLINGTON_WIND WELLINGTON_PRES DS824_LAT DS824_LON DS824_STAGE DS824_WIND DS824_PRES TD9636_LAT TD9636_LON TD9636_STAGE TD9636_WIND TD9636_PRES TD9635_LAT TD9635_LON TD9635_WIND TD9635_PRES TD9635_ROCI NEUMANN_LAT NEUMANN_LON NEUMANN_CLASS NEUMANN_WIND NEUMANN_PRES MLC_LAT MLC_LON MLC_CLASS MLC_WIND MLC_PRES USA_GUST BOM_GUST BOM_GUST_PER REUNION_GUST REUNION_GUST_PER USA_SEAHGT USA_SEARAD_NE USA_SEARAD_SE USA_SEARAD_SW USA_SEARAD_NW STORM_SPEED STORM_DIR
1873001S16058 1873 1 SI MM NOT_NAMED 1873-01-01 06:00:00 NR -16.0000 58.2000 reunion main 461 461 _____O________ -1 -16.0000 58.2000 99 9.90000 1 236
1873001S16058 1873 1 SI MM NOT_NAMED 1873-01-01 09:00:00 NR -16.0221 58.1594 main 461 460 _____P________ -1 -16.0221 58.1594 99 1 239
1873001S16058 1873 1 SI MM NOT_NAMED 1873-01-01 12:00:00 NR -16.0492 58.1132 main 460 449 _____P________ -1 -16.0492 58.1132 99 1 237
1873001S16058 1873 1 SI MM NOT_NAMED 1873-01-01 15:00:00 NR -16.0865 58.0556 main 449 448 _____P________ -1 -16.0865 58.0556 99 2 234
1873001S16058 1873 1 SI MM NOT_NAMED 1873-01-01 18:00:00 NR -16.1388 57.9812 main 448 436 _____P________ -1 -16.1388 57.9812 99 2 233
1873001S16058 1873 1 SI MM NOT_NAMED 1873-01-01 21:00:00 NR -16.2114 57.8841 main 436 425 _____P________ -1 -16.2114 57.8841 99 3 232
1873001S16058 1873 1 SI MM NOT_NAMED 1873-01-02 00:00:00 NR -16.3091 57.7588 main 425 413 _____P________ -1 -16.3091 57.7588 99 4 231
1873001S16058 1873 1 SI MM NOT_NAMED 1873-01-02 03:00:00 NR -16.4370 57.5993 main 413 391 _____P________ -1 -16.4370 57.5993 99 5 230
1873001S16058 1873 1 SI MM NOT_NAMED 1873-01-02 06:00:00 NR -16.6000 57.4000 reunion main 391 370 _____O________ -1 -16.6000 57.4000 99 9.90000 6 229
1873001S16058 1873 1 SI MM NOT_NAMED 1873-01-02 09:00:00 NR -16.8016 57.1571 main 370 350 _____P________ -1 -16.8016 57.1571 99 7 229
1873001S16058 1873 1 SI MM NOT_NAMED 1873-01-02 12:00:00 NR -17.0393 56.8758 main 352 327 _____P________ -1 -17.0393 56.8758 99 8 228
1873001S16058 1873 1 SI MM NOT_NAMED 1873-01-02 15:00:00 NR -17.3089 56.5636 main 327 306 _____P________ -1 -17.3089 56.5636 99 8 227
1873001S16058 1873 1 SI MM NOT_NAMED 1873-01-02 18:00:00 NR -17.6067 56.2279 main 311 292 _____P________ -1 -17.6067 56.2279 99 9 227
1873001S16058 1873 1 SI MM NOT_NAMED 1873-01-02 21:00:00 NR -17.9285 55.8761 main 298 290 _____P________ -1 -17.9285 55.8761 99 10 226
1873001S16058 1873 1 SI MM NOT_NAMED 1873-01-03 00:00:00 NR -18.2705 55.5158 main 290 268 _____P________ -1 -18.2705 55.5158 99 10 224
1873001S16058 1873 1 SI MM NOT_NAMED 1873-01-03 03:00:00 NR -18.6289 55.1545 main 268 229 _____P________ -1 -18.6289 55.1545 99 10 223
1873001S16058 1873 1 SI MM NOT_NAMED 1873-01-03 06:00:00 NR -19.0000 54.8000 reunion main 229 197 _____O________ -1 -19.0000 54.8000 99 9.90000 10 221
1873001S16058 1873 1 SI MM NOT_NAMED 1873-01-03 09:00:00 NR -19.3973 54.4557 main 197 183 _____P________ -1 -19.3973 54.4557 99 10 219
1873001S16058 1873 1 SI MM NOT_NAMED 1873-01-03 12:00:00 NR -19.8159 54.1100 main 183 175 _____P________ -1 -19.8159 54.1100 99 11 217
1873001S16058 1873 1 SI MM NOT_NAMED 1873-01-03 15:00:00 NR -20.2454 53.7680 main 177 174 _____P________ -1 -20.2454 53.7680 99 11 216
1873001S16058 1873 1 SI MM NOT_NAMED 1873-01-03 18:00:00 NR -20.6757 53.4347 main 192 189 _____P________ -1 -20.6757 53.4347 99 11 216
1873001S16058 1873 1 SI MM NOT_NAMED 1873-01-03 21:00:00 NR -21.0965 53.1157 main 217 217 _____P________ -1 -21.0965 53.1157 99 10 215
1873001S16058 1873 1 SI MM NOT_NAMED 1873-01-04 00:00:00 NR -21.4975 52.8165 main 252 252 _____P________ -1 -21.4975 52.8165 99 9 215
1873001S16058 1873 1 SI MM NOT_NAMED 1873-01-04 03:00:00 NR -21.8688 52.5426 main 293 293 _____P________ -1 -21.8688 52.5426 99 9 214
1873001S16058 1873 1 SI MM NOT_NAMED 1873-01-04 06:00:00 NR -22.2000 52.3000 reunion main 323 323 _____O________ -1 -22.2000 52.3000 99 9.90000 7 215
1873001S16058 1873 1 SI MM NOT_NAMED 1873-01-04 09:00:00 NR -22.4519 52.1047 main 356 356 _____P________ -1 -22.4519 52.1047 99 6 215
1873001S16058 1873 1 SI MM NOT_NAMED 1873-01-04 12:00:00 NR -22.6654 51.9420 main 383 383 _____P________ -1 -22.6654 51.9420 99 5 215
1873001S16058 1873 1 SI MM NOT_NAMED 1873-01-04 15:00:00 NR -22.8489 51.8058 main 386 380 _____P________ -1 -22.8489 51.8058 99 4 214
1873001S16058 1873 1 SI MM NOT_NAMED 1873-01-04 18:00:00 NR -23.0104 51.6899 main 383 378 _____P________ -1 -23.0104 51.6899 99 4 213
1873001S16058 1873 1 SI MM NOT_NAMED 1873-01-04 21:00:00 NR -23.1581 51.5877 main 382 373 _____P________ -1 -23.1581 51.5877 99 3 212
1873001S16058 1873 1 SI MM NOT_NAMED 1873-01-05 00:00:00 NR -23.3002 51.4930 main 377 372 _____P________ -1 -23.3002 51.4930 99 3 211
1873001S16058 1873 1 SI MM NOT_NAMED 1873-01-05 03:00:00 NR -23.4448 51.3993 main 372 363 _____P________ -1 -23.4448 51.3993 99 3 210
1873001S16058 1873 1 SI MM NOT_NAMED 1873-01-05 06:00:00 NR -23.6000 51.3000 reunion main 365 358 _____O________ -1 -23.6000 51.3000 99 9.90000 4 212
1873001S16058 1873 1 SI MM NOT_NAMED 1873-01-05 09:00:00 NR -23.7735 51.1776 main 359 349 _____P________ -1 -23.7735 51.1776 99 4 212
1873001S16058 1873 1 SI MM NOT_NAMED 1873-01-05 12:00:00 NR -23.9503 51.0545 main 352 334 _____P________ -1 -23.9503 51.0545 99 4 212
1873001S16058 1873 1 SI MM NOT_NAMED 1873-01-05 15:00:00 NR -24.1343 50.9290 main 334 330 _____P________ -1 -24.1343 50.9290 99 4 212
1873001S16058 1873 1 SI MM NOT_NAMED 1873-01-05 18:00:00 NR -24.3295 50.7992 main 330 324 _____P________ -1 -24.3295 50.7992 99 5 211
1873001S16058 1873 1 SI MM NOT_NAMED 1873-01-05 21:00:00 NR -24.5397 50.6633 main 328 313 _____P________ -1 -24.5397 50.6633 99 5 210
1873001S16058 1873 1 SI MM NOT_NAMED 1873-01-06 00:00:00 NR -24.7689 50.5194 main 316 310 _____P________ -1 -24.7689 50.5194 99 6 209
1873001S16058 1873 1 SI MM NOT_NAMED 1873-01-06 03:00:00 NR -25.0210 50.3656 main 313 302 _____P________ -1 -25.0210 50.3656 99 6 209
1873001S16058 1873 1 SI MM NOT_NAMED 1873-01-06 06:00:00 NR -25.3000 50.2000 reunion main 305 298 _____O________ -1 -25.3000 50.2000 99 9.90000 6 208
1873001S16058 1873 1 SI MM NOT_NAMED 1873-01-06 09:00:00 NR -25.5743 50.0339 main 298 291 _____P________ -1 -25.5743 50.0339 99 7 208
1873001S16058 1873 1 SI MM NOT_NAMED 1873-01-06 12:00:00 NR -25.8711 49.8576 main 298 288 _____P________ -1 -25.8711 49.8576 99 7 208
1873001S16058 1873 1 SI MM NOT_NAMED 1873-01-06 15:00:00 NR -26.1934 49.6696 main 292 284 _____P________ -1 -26.1934 49.6696 99 8 207
1873001S16058 1873 1 SI MM NOT_NAMED 1873-01-06 18:00:00 NR -26.5445 49.4684 main 292 291 _____P________ -1 -26.5445 49.4684 99 8 207
1873001S16058 1873 1 SI MM NOT_NAMED 1873-01-06 21:00:00 NR -26.9275 49.2526 main 305 297 _____P________ -1 -26.9275 49.2526 99 9 207
1873001S16058 1873 1 SI MM NOT_NAMED 1873-01-07 00:00:00 NR -27.3457 49.0204 main 316 316 _____P________ -1 -27.3457 49.0204 99 10 206
1873001S16058 1873 1 SI MM NOT_NAMED 1873-01-07 03:00:00 NR -27.8021 48.7702 main 350 350 _____P________ -1 -27.8021 48.7702 99 11 206
1873001S16058 1873 1 SI MM NOT_NAMED 1873-01-07 06:00:00 NR -28.3000 48.5000 reunion main 385 385 _____O________ -1 -28.3000 48.5000 99 9.90000 12 205
1873001S16058 1873 1 SI MM NOT_NAMED 1873-01-07 09:00:00 NR -28.9234 48.1643 main 435 435 _____P________ -1 -28.9234 48.1643 99 14 205
1873001S16058 1873 1 SI MM NOT_NAMED 1873-01-07 12:00:00 NR -29.6014 47.7990 main 500 500 _____P________ -1 -29.6014 47.7990 99 15 205
1873001S16058 1873 1 SI MM NOT_NAMED 1873-01-07 15:00:00 NR -30.3086 47.4160 main 556 556 _____P________ -1 -30.3086 47.4160 99 16 205
1873001S16058 1873 1 SI MM NOT_NAMED 1873-01-07 18:00:00 NR -31.0197 47.0278 main 620 620 _____P________ -1 -31.0197 47.0278 99 16 205
1873001S16058 1873 1 SI MM NOT_NAMED 1873-01-07 21:00:00 NR -31.7093 46.6476 main 689 689 _____P________ -1 -31.7093 46.6476 99 15 205
1873001S16058 1873 1 SI MM NOT_NAMED 1873-01-08 00:00:00 NR -32.3525 46.2896 main 763 763 _____P________ -1 -32.3525 46.2896 99 13 205
1873001S16058 1873 1 SI MM NOT_NAMED 1873-01-08 03:00:00 NR -32.9243 45.9686 main 816 816 _____P________ -1 -32.9243 45.9686 99 12 205
1873001S16058 1873 1 SI MM NOT_NAMED 1873-01-08 06:00:00 NR -33.4000 45.7000 reunion main 870 870 _____O________ -1 -33.4000 45.7000 99 9.90000 9 205
1873001S16058 1873 1 SI MM NOT_NAMED 1873-01-08 09:00:00 NR -33.7619 45.4958 main 915 915 _____P________ -1 -33.7619 45.4958 99 7 205
1873001S16058 1873 1 SI MM NOT_NAMED 1873-01-08 12:00:00 NR -34.0187 45.3524 main 937 937 _____P________ -1 -34.0187 45.3524 99 5 205
1873001S16058 1873 1 SI MM NOT_NAMED 1873-01-08 15:00:00 NR -34.1858 45.2618 main 959 959 _____P________ -1 -34.1858 45.2618 99 3 203
1873001S16058 1873 1 SI MM NOT_NAMED 1873-01-08 18:00:00 NR -34.2781 45.2158 main 970 970 _____P________ -1 -34.2781 45.2158 99 1 198
1873001S16058 1873 1 SI MM NOT_NAMED 1873-01-08 21:00:00 NR -34.3108 45.2055 main 970 970 _____P________ -1 -34.3108 45.2055 99 0 0
1873001S16058 1873 1 SI MM NOT_NAMED 1873-01-09 00:00:00 NR -34.2988 45.2221 main 970 970 _____P________ -1 -34.2988 45.2221 99 1 38
1873001S16058 1873 1 SI MM NOT_NAMED 1873-01-09 03:00:00 NR -34.2569 45.2566 main 970 959 _____P________ -1 -34.2569 45.2566 99 1 34
1873001S16058 1873 1 SI MM NOT_NAMED 1873-01-09 06:00:00 NR -34.2000 45.3000 reunion main 959 _____O________ -1 -34.2000 45.3000 99 9.90000 1 34

IBTrACS Databaseについて

本データベースは、米国NOAAが公開する1842年以降の世界の熱帯低気圧のベストトラックデータアーカイブInternational Best Track Archive for Climate Stewardship (IBTrACS)を、ウェブで閲覧しやすい形式に変換したものです。

最終更新日:2021-10-21